Time;durP1;ratioP1;P1;durP2;ratioP2;P2;SDS_P1;SDS_P2;PMS_P1;PMS_P2;Temp;Humidity;BMP_temperature;BMP_pressure;BME280_temperature;BME280_humidity;BME280_pressure;Samples;Min_cycle;Max_cycle;Signal;HPM_P1;HPM_P2
2022/09/26 00:01:08;;;;;;;6.32;3.17;;;14.00;99.90;;;;;;5054241;28;20079;-87
2022/09/26 00:03:35;;;;;;;5.15;3.38;;;13.90;99.90;;;;;;5053319;28;20194;-87
2022/09/26 00:06:07;;;;;;;5.13;3.42;;;13.90;99.90;;;;;;5053077;28;20465;-87
2022/09/26 00:08:34;;;;;;;5.32;3.50;;;13.90;99.90;;;;;;5053166;28;20067;-87
2022/09/26 00:11:02;;;;;;;5.90;3.15;;;13.90;99.90;;;;;;5036399;28;20138;-87
2022/09/26 00:13:29;;;;;;;6.40;3.13;;;13.90;99.90;;;;;;5054290;28;20052;-86
2022/09/26 00:15:56;;;;;;;7.25;3.65;;;13.80;99.90;;;;;;5036343;28;20029;-87
2022/09/26 00:18:22;;;;;;;8.63;3.28;;;13.80;99.90;;;;;;5035892;28;20048;-87
2022/09/26 00:20:48;;;;;;;5.60;3.20;;;13.80;99.90;;;;;;5053371;28;20025;-87
2022/09/26 00:23:14;;;;;;;5.80;3.35;;;13.80;99.90;;;;;;5052931;28;20051;-86
2022/09/26 00:25:50;;;;;;;7.45;3.17;;;13.70;99.90;;;;;;5053761;28;20021;-87
2022/09/26 00:28:18;;;;;;;8.95;3.13;;;13.70;99.90;;;;;;5036127;28;20120;-87
2022/09/26 00:30:44;;;;;;;6.40;3.33;;;13.70;99.90;;;;;;5052460;28;20037;-87
2022/09/26 00:33:10;;;;;;;5.25;3.40;;;13.70;99.90;;;;;;5053902;28;20025;-87
2022/09/26 00:35:37;;;;;;;4.72;3.00;;;13.60;99.90;;;;;;5054145;28;20025;-87
2022/09/26 00:38:04;;;;;;;3.63;2.50;;;13.60;99.90;;;;;;5053895;28;20035;-87
2022/09/26 00:40:31;;;;;;;8.20;3.10;;;13.60;99.90;;;;;;5053875;28;20487;-87
2022/09/26 00:42:57;;;;;;;8.23;2.83;;;13.60;99.90;;;;;;5053901;28;20477;-87
2022/09/26 00:45:29;;;;;;;4.53;2.70;;;13.60;99.90;;;;;;5036063;28;20022;-87
2022/09/26 00:48:05;;;;;;;5.60;3.00;;;13.50;99.90;;;;;;5052655;28;20029;-86
2022/09/26 00:50:35;;;;;;;5.05;3.00;;;13.60;99.90;;;;;;5053645;28;20448;-87
2022/09/26 00:53:03;;;;;;;5.93;2.60;;;13.50;99.90;;;;;;5052874;28;20035;-87
2022/09/26 00:55:33;;;;;;;8.40;2.63;;;13.50;99.90;;;;;;5052557;28;20025;-87
2022/09/26 00:58:08;;;;;;;5.78;2.90;;;13.50;99.90;;;;;;5061107;28;20036;-87
2022/09/26 01:00:35;;;;;;;7.15;2.78;;;13.50;99.90;;;;;;5069918;28;20084;-86
2022/09/26 01:03:01;;;;;;;6.05;2.80;;;13.50;99.90;;;;;;5077132;28;20029;-86
2022/09/26 01:05:27;;;;;;;9.25;2.88;;;13.40;99.90;;;;;;5072838;28;20021;-87
2022/09/26 01:07:55;;;;;;;6.25;2.95;;;13.40;99.90;;;;;;5054208;28;20036;-87
2022/09/26 01:10:23;;;;;;;4.32;3.00;;;13.50;99.90;;;;;;5071934;28;20055;-87
2022/09/26 01:12:49;;;;;;;4.72;2.63;;;13.50;99.90;;;;;;5068491;28;20033;-87
2022/09/26 01:15:15;;;;;;;4.50;3.00;;;13.50;99.90;;;;;;5058714;28;20483;-88
2022/09/26 01:17:43;;;;;;;7.03;3.08;;;13.50;99.90;;;;;;5056745;28;20025;-88
2022/09/26 01:20:30;;;;;;;6.28;2.88;;;13.50;99.90;;;;;;5056540;28;20117;-88
2022/09/26 01:23:29;;;;;;;5.18;2.67;;;13.60;99.90;;;;;;5056718;28;20082;-88
2022/09/26 01:26:17;;;;;;;8.38;3.13;;;13.60;99.90;;;;;;5056568;28;20084;-88
2022/09/26 01:29:20;;;;;;;4.45;2.67;;;13.60;99.90;;;;;;5056214;28;20025;-88
2022/09/26 01:35:27;;;;;;;7.93;3.17;;;13.60;99.90;;;;;;5057513;28;20526;-88
2022/09/26 01:38:10;;;;;;;;;;;13.60;99.90;;;;;;5056537;28;20106;-87
2022/09/26 01:40:41;;;;;;;6.20;3.55;;;13.60;99.90;;;;;;5057555;28;19911;-88
2022/09/26 01:43:24;;;;;;;4.80;3.15;;;13.60;99.90;;;;;;5056013;28;20381;-88
2022/09/26 01:45:59;;;;;;;7.50;3.28;;;13.60;99.90;;;;;;5057240;28;20479;-88
2022/09/26 01:48:36;;;;;;;5.28;3.00;;;13.60;99.90;;;;;;5055783;28;20025;-88
2022/09/26 01:51:20;;;;;;;7.43;3.30;;;13.60;99.90;;;;;;5057214;28;20481;-88
2022/09/26 01:53:54;;;;;;;8.00;3.30;;;13.60;99.90;;;;;;5055874;28;20021;-87
2022/09/26 01:56:24;;;;;;;5.97;3.35;;;13.60;99.90;;;;;;5055564;28;20021;-87
2022/09/26 01:59:11;;;;;;;7.97;3.30;;;13.60;99.90;;;;;;5055373;28;20025;-88
2022/09/26 02:01:42;;;;;;;7.35;3.30;;;13.50;99.90;;;;;;5056949;28;20045;-88
2022/09/26 02:04:16;;;;;;;8.43;3.38;;;13.50;99.90;;;;;;5055687;28;20114;-87
2022/09/26 02:06:58;;;;;;;6.78;4.10;;;13.40;99.90;;;;;;5056798;28;20140;-87
2022/09/26 02:09:37;;;;;;;6.85;3.25;;;13.40;99.90;;;;;;5055354;28;20021;-87
2022/09/26 02:12:07;;;;;;;5.75;3.25;;;13.40;99.90;;;;;;5055167;28;20158;-87
2022/09/26 02:14:36;;;;;;;7.60;3.47;;;13.30;99.90;;;;;;5055088;28;20029;-87
2022/09/26 02:17:13;;;;;;;4.78;3.03;;;13.30;99.90;;;;;;5055309;28;20104;-87
2022/09/26 02:19:48;;;;;;;9.88;3.65;;;13.30;99.90;;;;;;5055340;28;20040;-87
2022/09/26 02:22:13;;;;;;;9.55;3.47;;;13.30;99.90;;;;;;5055128;28;20028;-87
2022/09/26 02:24:39;;;;;;;7.60;3.10;;;13.30;99.90;;;;;;5038668;28;20029;-87
2022/09/26 02:27:05;;;;;;;8.43;3.10;;;13.30;99.90;;;;;;5055207;28;20060;-86
2022/09/26 02:29:32;;;;;;;6.90;3.10;;;13.20;99.90;;;;;;5046456;28;20036;-86
2022/09/26 02:32:04;;;;;;;7.07;3.40;;;13.20;99.90;;;;;;5040049;28;20033;-87
2022/09/26 02:34:30;;;;;;;6.10;3.25;;;13.20;99.90;;;;;;5056180;28;20051;-87
2022/09/26 02:36:58;;;;;;;7.70;3.30;;;13.20;99.90;;;;;;5038406;28;20033;-87
2022/09/26 02:39:24;;;;;;;10.43;3.40;;;13.10;99.90;;;;;;5054683;28;20388;-87
2022/09/26 02:42:01;;;;;;;7.78;3.35;;;13.10;99.90;;;;;;5056425;28;20029;-87
2022/09/26 02:44:38;;;;;;;7.50;3.38;;;13.10;99.90;;;;;;5055746;28;20029;-87
2022/09/26 02:47:22;;;;;;;8.30;2.90;;;13.10;99.90;;;;;;5054605;28;20025;-87
2022/09/26 02:50:18;;;;;;;7.30;3.00;;;13.10;99.90;;;;;;5054482;28;20478;-86
2022/09/26 02:53:22;;;;;;;7.22;2.92;;;13.10;99.90;;;;;;5055905;28;20100;-86
2022/09/26 02:56:16;;;;;;;6.95;2.83;;;13.10;99.90;;;;;;5054519;28;20025;-87
2022/09/26 02:58:52;;;;;;;7.35;2.80;;;13.10;99.90;;;;;;5055942;28;20025;-86
2022/09/26 03:01:30;;;;;;;12.77;3.13;;;13.10;99.90;;;;;;5053804;28;20136;-88
2022/09/26 03:03:56;;;;;;;5.05;2.55;;;13.10;99.90;;;;;;5054393;28;20025;-87
2022/09/26 03:06:33;;;;;;;5.38;2.85;;;13.10;99.90;;;;;;5054059;28;20032;-87
2022/09/26 03:09:02;;;;;;;5.50;2.88;;;13.10;99.90;;;;;;5055140;28;20107;-87
2022/09/26 03:11:29;;;;;;;5.95;2.95;;;13.10;99.90;;;;;;5054222;28;20380;-87
2022/09/26 03:13:56;;;;;;;6.82;2.97;;;13.10;99.90;;;;;;5054176;28;20059;-88
2022/09/26 03:16:25;;;;;;;7.43;2.92;;;13.10;99.90;;;;;;5055427;28;20063;-87
2022/09/26 03:18:56;;;;;;;7.28;3.20;;;13.10;99.90;;;;;;5054387;28;20072;-87
2022/09/26 03:21:22;;;;;;;;;;;13.10;99.90;;;;;;5054602;28;20091;-89
2022/09/26 03:23:48;;;;;;;7.63;3.38;;;13.10;99.90;;;;;;5037010;28;19963;-88
2022/09/26 03:26:18;;;;;;;7.10;2.88;;;13.00;99.90;;;;;;5037679;28;20033;-88
2022/09/26 03:28:44;;;;;;;5.82;2.63;;;13.00;99.90;;;;;;5054125;28;20381;-88
2022/09/26 03:31:10;;;;;;;6.65;2.65;;;13.00;99.90;;;;;;5037715;28;20033;-88
2022/09/26 03:33:36;;;;;;;8.75;3.28;;;13.00;99.90;;;;;;5037538;28;20032;-88
2022/09/26 03:36:08;;;;;;;4.18;2.50;;;13.00;99.90;;;;;;5055095;28;20029;-88
2022/09/26 03:38:33;;;;;;;4.63;2.65;;;13.00;99.90;;;;;;5055295;28;20028;-88
2022/09/26 03:40:59;;;;;;;9.77;3.20;;;13.00;99.90;;;;;;5055212;28;20522;-88
2022/09/26 03:43:25;;;;;;;7.38;2.90;;;12.90;99.90;;;;;;5053503;28;20031;-88
2022/09/26 03:45:51;;;;;;;6.97;2.70;;;12.90;99.90;;;;;;5053872;28;20029;-87
2022/09/26 03:48:16;;;;;;;5.57;2.60;;;12.90;99.90;;;;;;5054835;28;20040;-88
2022/09/26 03:50:42;;;;;;;7.22;2.88;;;12.90;99.90;;;;;;5052906;28;20033;-88
2022/09/26 03:53:09;;;;;;;7.13;2.80;;;12.90;99.90;;;;;;5037636;28;20102;-88
2022/09/26 03:55:34;;;;;;;6.00;2.80;;;12.80;99.90;;;;;;5053905;28;20021;-88
2022/09/26 03:58:00;;;;;;;5.22;2.83;;;12.80;99.90;;;;;;5036870;28;20025;-88
2022/09/26 04:00:26;;;;;;;4.35;2.38;;;12.80;99.90;;;;;;5037137;28;20132;-89
2022/09/26 04:02:52;;;;;;;7.47;2.70;;;12.80;99.90;;;;;;5036977;28;20029;-88
2022/09/26 04:05:17;;;;;;;7.55;2.30;;;12.80;99.90;;;;;;5054641;28;20055;-88
2022/09/26 04:07:43;;;;;;;6.22;2.58;;;12.80;99.90;;;;;;5053675;28;20028;-89
2022/09/26 04:10:11;;;;;;;6.45;2.60;;;12.70;99.90;;;;;;5043777;28;20037;-88
2022/09/26 04:12:37;;;;;;;6.60;2.50;;;12.70;99.90;;;;;;5037456;28;20032;-88
2022/09/26 04:15:04;;;;;;;6.03;2.42;;;12.70;99.90;;;;;;5037251;28;20044;-87
2022/09/26 04:17:29;;;;;;;5.97;2.60;;;12.70;99.90;;;;;;5036517;28;20025;-88
2022/09/26 04:19:55;;;;;;;4.68;2.38;;;12.70;99.90;;;;;;5036931;28;20029;-88
2022/09/26 04:22:21;;;;;;;5.88;2.50;;;12.60;99.90;;;;;;5036734;28;20116;-89
2022/09/26 04:24:46;;;;;;;8.07;2.78;;;12.60;99.90;;;;;;5053526;28;20025;-88
2022/09/26 04:27:12;;;;;;;7.13;2.40;;;12.60;99.90;;;;;;5036586;28;20448;-88
2022/09/26 04:29:37;;;;;;;4.68;2.30;;;12.60;99.90;;;;;;5054129;28;20037;-87
2022/09/26 04:32:03;;;;;;;5.97;2.38;;;12.60;99.90;;;;;;5036729;28;20025;-88
2022/09/26 04:34:29;;;;;;;6.72;2.40;;;12.50;99.90;;;;;;5037346;28;20396;-88
2022/09/26 04:36:55;;;;;;;5.25;2.42;;;12.50;99.90;;;;;;5049958;28;20021;-88
2022/09/26 04:39:22;;;;;;;11.43;3.28;;;12.50;99.90;;;;;;5071082;28;20096;-88
2022/09/26 04:41:47;;;;;;;7.68;2.60;;;12.50;99.90;;;;;;5071728;28;20539;-88
2022/09/26 04:44:14;;;;;;;6.47;2.50;;;12.50;99.90;;;;;;5051211;28;20025;-87
2022/09/26 04:46:39;;;;;;;4.60;2.17;;;12.50;99.90;;;;;;5053056;28;20052;-87
2022/09/26 04:49:05;;;;;;;7.53;2.38;;;12.40;99.90;;;;;;5067917;28;20032;-87
2022/09/26 04:51:31;;;;;;;4.97;2.20;;;12.40;99.90;;;;;;5045072;28;20029;-87
2022/09/26 04:53:57;;;;;;;5.28;2.15;;;12.40;99.90;;;;;;5054898;28;20032;-87
2022/09/26 04:56:27;;;;;;;6.45;2.30;;;12.40;99.90;;;;;;5053021;28;20458;-87
2022/09/26 04:58:55;;;;;;;7.40;2.23;;;12.40;99.90;;;;;;5053970;28;20036;-87
2022/09/26 05:01:22;;;;;;;6.05;2.15;;;12.40;99.90;;;;;;5052095;28;20177;-88
2022/09/26 05:03:48;;;;;;;6.70;2.00;;;12.40;99.90;;;;;;5053988;28;20025;-86
2022/09/26 05:06:16;;;;;;;8.13;2.47;;;12.40;99.90;;;;;;5052749;28;20025;-87
2022/09/26 05:08:45;;;;;;;10.30;2.10;;;12.40;99.90;;;;;;5053804;28;20114;-86
2022/09/26 05:11:12;;;;;;;4.53;1.80;;;12.40;99.90;;;;;;5052711;28;20032;-87
2022/09/26 05:13:38;;;;;;;5.15;2.75;;;12.40;99.90;;;;;;5052311;28;20055;-87
2022/09/26 05:16:07;;;;;;;3.88;1.75;;;12.40;99.90;;;;;;5052551;28;20025;-88
2022/09/26 05:18:33;;;;;;;10.30;3.00;;;12.30;99.90;;;;;;5062872;28;20489;-87
2022/09/26 05:21:00;;;;;;;4.75;2.17;;;12.40;99.90;;;;;;5053952;28;20028;-89
2022/09/26 05:26:50;;;;;;;5.32;2.33;;;12.30;99.90;;;;;;5054524;28;20121;-88
2022/09/26 05:29:16;;;;;;;4.85;2.03;;;12.40;99.90;;;;;;5053021;28;20078;-89
2022/09/26 05:31:42;;;;;;;10.07;2.90;;;12.30;99.90;;;;;;5036292;28;20079;-89
2022/09/26 05:34:09;;;;;;;5.93;2.30;;;12.30;99.90;;;;;;5035898;28;20033;-89
2022/09/26 05:36:36;;;;;;;4.50;2.40;;;12.30;99.90;;;;;;5052721;28;20021;-88
2022/09/26 05:39:03;;;;;;;7.05;2.90;;;12.30;99.90;;;;;;5052702;28;20063;-89
2022/09/26 05:41:30;;;;;;;9.18;2.63;;;12.20;99.90;;;;;;5040212;28;20036;-88
2022/09/26 05:43:57;;;;;;;8.95;2.80;;;12.20;99.90;;;;;;5052591;28;20021;-88
2022/09/26 05:46:23;;;;;;;9.98;2.92;;;12.20;99.90;;;;;;5052884;28;20025;-87
2022/09/26 05:48:49;;;;;;;13.80;2.97;;;12.20;99.90;;;;;;5039317;28;20494;-87
2022/09/26 05:51:16;;;;;;;5.55;2.47;;;12.20;99.90;;;;;;5056010;28;20033;-87
2022/09/26 05:53:44;;;;;;;10.90;3.47;;;12.20;99.90;;;;;;5057296;28;20024;-88
2022/09/26 05:56:11;;;;;;;5.28;2.70;;;12.20;99.90;;;;;;5057478;28;20017;-87
2022/09/26 05:58:39;;;;;;;4.90;2.55;;;12.10;99.90;;;;;;5056881;28;20104;-88
2022/09/26 06:01:07;;;;;;;4.60;2.45;;;12.20;99.90;;;;;;5039167;28;20469;-87
2022/09/26 06:03:34;;;;;;;6.88;2.88;;;12.10;99.90;;;;;;5057269;28;20075;-87
2022/09/26 06:06:05;;;;;;;5.00;2.42;;;12.10;99.90;;;;;;5055792;28;20388;-87
2022/09/26 06:08:31;;;;;;;7.95;2.70;;;12.10;99.90;;;;;;5057459;28;20031;-88
2022/09/26 06:11:02;;;;;;;8.68;3.17;;;12.10;99.90;;;;;;5039284;28;20102;-88
2022/09/26 06:13:29;;;;;;;5.57;2.33;;;12.10;99.90;;;;;;5056055;28;20090;-88
2022/09/26 06:15:56;;;;;;;6.75;2.70;;;12.10;99.90;;;;;;5057087;28;20050;-88
2022/09/26 06:18:22;;;;;;;4.72;2.55;;;12.10;99.90;;;;;;5039511;28;20025;-88
2022/09/26 06:20:47;;;;;;;7.85;2.65;;;12.20;99.90;;;;;;5056137;28;20046;-89
2022/09/26 06:23:13;;;;;;;6.38;2.50;;;12.20;99.90;;;;;;5039275;28;20060;-89
2022/09/26 06:25:39;;;;;;;4.65;2.25;;;12.10;99.90;;;;;;5055708;28;20035;-91
2022/09/26 06:28:04;;;;;;;10.13;2.80;;;12.10;99.90;;;;;;5039801;28;20025;-89
2022/09/26 06:30:30;;;;;;;6.40;2.47;;;12.10;99.90;;;;;;5038646;28;20044;-89
2022/09/26 06:32:57;;;;;;;6.72;2.38;;;12.10;99.90;;;;;;5038662;28;20064;-89
2022/09/26 06:35:25;;;;;;;8.80;3.28;;;12.10;99.90;;;;;;5055217;28;20029;-89
2022/09/26 06:37:53;;;;;;;5.55;2.28;;;12.10;99.90;;;;;;5055454;28;20029;-87
2022/09/26 06:40:19;;;;;;;12.10;3.03;;;12.10;99.90;;;;;;5055413;28;20017;-87
2022/09/26 06:42:45;;;;;;;9.32;2.47;;;12.10;99.90;;;;;;5038516;28;20036;-87
2022/09/26 06:45:11;;;;;;;5.65;2.53;;;12.10;99.90;;;;;;5038763;28;20091;-87
2022/09/26 06:47:37;;;;;;;5.18;2.65;;;12.10;99.90;;;;;;5055052;28;20024;-88
2022/09/26 06:50:03;;;;;;;7.25;2.92;;;12.10;99.90;;;;;;5056151;28;20040;-88
2022/09/26 06:52:32;;;;;;;6.63;2.67;;;12.20;99.90;;;;;;5056039;28;20071;-88
2022/09/26 06:54:58;;;;;;;7.35;2.83;;;12.10;99.90;;;;;;5038446;28;20048;-89
2022/09/26 06:57:24;;;;;;;6.35;2.78;;;12.10;99.90;;;;;;5055002;28;20110;-89
2022/09/26 06:59:52;;;;;;;8.27;3.17;;;12.10;99.90;;;;;;5053788;28;20033;-89
2022/09/26 07:02:18;;;;;;;5.38;2.58;;;12.20;99.90;;;;;;5038432;28;20120;-88
2022/09/26 07:04:46;;;;;;;8.98;3.00;;;12.20;99.90;;;;;;5038273;28;20039;-88
2022/09/26 07:07:11;;;;;;;8.07;2.90;;;12.20;99.90;;;;;;5056136;28;20028;-88
2022/09/26 07:09:39;;;;;;;6.70;2.80;;;12.20;99.90;;;;;;5054624;28;20124;-88
2022/09/26 07:12:05;;;;;;;8.43;2.67;;;12.20;99.90;;;;;;5054991;28;20079;-88
2022/09/26 07:14:31;;;;;;;7.75;2.80;;;12.20;99.90;;;;;;5054772;28;20453;-88
2022/09/26 07:16:57;;;;;;;7.00;2.60;;;12.20;99.90;;;;;;5055684;28;20475;-88
2022/09/26 07:19:22;;;;;;;7.80;3.22;;;12.20;99.90;;;;;;5054895;28;20025;-90
2022/09/26 07:21:48;;;;;;;9.77;3.20;;;12.30;99.90;;;;;;5038383;28;20033;-90
2022/09/26 07:24:16;;;;;;;7.43;3.22;;;12.20;99.90;;;;;;5056344;28;20522;-88
2022/09/26 07:26:42;;;;;;;8.27;2.80;;;12.30;99.90;;;;;;5056633;28;20457;-90
2022/09/26 07:29:08;;;;;;;8.63;3.00;;;12.20;99.90;;;;;;5054336;28;20029;-88
2022/09/26 07:31:35;;;;;;;6.85;2.55;;;12.30;99.90;;;;;;5054480;28;20025;-89
2022/09/26 07:34:02;;;;;;;6.07;2.60;;;12.20;99.90;;;;;;5055539;28;20029;-88
2022/09/26 07:36:31;;;;;;;7.70;3.47;;;12.20;99.90;;;;;;5054289;28;20021;-89
2022/09/26 07:38:57;;;;;;;6.70;2.47;;;12.20;99.90;;;;;;5037646;28;20029;-89
2022/09/26 07:41:22;;;;;;;7.20;2.47;;;12.20;99.90;;;;;;5054314;28;20017;-90
2022/09/26 07:43:48;;;;;;;8.65;2.85;;;12.30;99.90;;;;;;5037931;28;20473;-89
2022/09/26 07:51:42;;;;;;;8.88;2.30;;;12.30;99.90;;;;;;5055004;28;20072;-92
2022/09/26 07:54:08;;;;;;;6.25;2.55;;;12.30;99.90;;;;;;5037800;28;20385;-89
2022/09/26 07:56:33;;;;;;;5.72;2.78;;;12.30;99.90;;;;;;5037702;28;20036;-91
2022/09/26 07:59:04;;;;;;;6.82;3.03;;;12.30;99.90;;;;;;5054221;28;20029;-90
2022/09/26 08:01:30;;;;;;;6.32;2.53;;;12.30;99.90;;;;;;5037844;28;20428;-89
2022/09/26 08:03:57;;;;;;;7.57;2.50;;;12.40;99.90;;;;;;5053695;28;20028;-89
2022/09/26 08:06:23;;;;;;;8.25;2.40;;;12.30;99.90;;;;;;5055055;28;20025;-89
2022/09/26 08:08:58;;;;;;;7.35;2.70;;;12.40;99.90;;;;;;5037273;28;20033;-93
2022/09/26 08:11:24;;;;;;;6.75;2.65;;;12.40;99.90;;;;;;5037070;28;20083;-87
2022/09/26 08:13:49;;;;;;;5.00;2.58;;;12.30;99.90;;;;;;5037618;28;20029;-91
2022/09/26 08:16:21;;;;;;;7.80;2.50;;;12.40;99.90;;;;;;5048624;28;20025;-89
2022/09/26 08:18:51;;;;;;;6.60;2.60;;;12.40;99.90;;;;;;5051926;28;20119;-89
2022/09/26 08:21:17;;;;;;;7.20;2.60;;;12.40;99.90;;;;;;5070608;28;20033;-88
2022/09/26 08:23:43;;;;;;;8.60;2.88;;;12.40;99.90;;;;;;5049750;28;20029;-89
2022/09/26 08:26:09;;;;;;;5.85;2.22;;;12.40;99.90;;;;;;5041191;28;20028;-89
2022/09/26 08:28:36;;;;;;;4.55;2.22;;;12.50;99.90;;;;;;5059785;28;20082;-90
2022/09/26 08:31:03;;;;;;;6.45;2.75;;;12.50;99.90;;;;;;5055694;28;20045;-92
2022/09/26 08:33:34;;;;;;;8.60;2.53;;;12.50;99.90;;;;;;5053572;28;20048;-91
2022/09/26 08:36:08;;;;;;;8.95;2.38;;;12.50;99.90;;;;;;5053480;28;20017;-89
2022/09/26 08:38:35;;;;;;;9.07;2.58;;;12.50;99.90;;;;;;5054842;28;20032;-91
2022/09/26 08:41:35;;;;;;;3.80;1.90;;;12.60;99.90;;;;;;5036897;28;20060;-89
2022/09/26 08:44:45;;;;;;;5.93;2.40;;;12.60;99.90;;;;;;5054446;28;20074;-89
2022/09/26 08:47:39;;;;;;;6.07;1.98;;;12.60;99.90;;;;;;5053257;28;20033;-89
2022/09/26 08:50:17;;;;;;;7.40;2.70;;;12.60;99.90;;;;;;5053662;28;20091;-89
2022/09/26 08:52:47;;;;;;;5.05;1.90;;;12.60;99.90;;;;;;5053819;28;20029;-91
2022/09/26 08:55:21;;;;;;;5.07;2.33;;;12.60;99.90;;;;;;5054502;28;20103;-90
2022/09/26 08:57:53;;;;;;;5.72;2.08;;;12.70;99.90;;;;;;5057392;28;20058;-91
2022/09/26 09:00:23;;;;;;;8.50;2.33;;;12.70;99.90;;;;;;5054154;28;20048;-87
2022/09/26 09:02:57;;;;;;;10.43;2.30;;;12.70;99.90;;;;;;5054367;28;20028;-89
2022/09/26 09:05:38;;;;;;;6.30;2.58;;;12.70;99.90;;;;;;5054293;28;20044;-88
2022/09/26 09:08:11;;;;;;;6.68;2.22;;;12.70;99.90;;;;;;5052994;28;20021;-89
2022/09/26 09:10:44;;;;;;;7.93;2.17;;;12.70;99.90;;;;;;5054062;28;20036;-90
2022/09/26 09:13:37;;;;;;;6.30;2.20;;;12.80;99.90;;;;;;5053117;28;20021;-89
2022/09/26 09:16:33;;;;;;;6.35;3.20;;;12.80;99.90;;;;;;5053921;28;20018;-89
2022/09/26 09:19:30;;;;;;;4.18;2.30;;;12.80;99.90;;;;;;5054058;28;20043;-88
2022/09/26 09:22:25;;;;;;;6.43;2.95;;;12.80;99.90;;;;;;5054256;28;20032;-90
2022/09/26 09:25:08;;;;;;;7.20;2.90;;;12.80;99.90;;;;;;5057111;28;20024;-91
2022/09/26 09:27:47;;;;;;;6.47;2.47;;;12.90;99.90;;;;;;5056719;28;20025;-89
2022/09/26 09:30:40;;;;;;;5.22;2.40;;;12.80;99.90;;;;;;5056906;28;20120;-91
2022/09/26 09:33:26;;;;;;;6.25;2.63;;;12.80;99.90;;;;;;5057004;28;20036;-91
2022/09/26 09:35:58;;;;;;;9.32;2.83;;;12.90;99.90;;;;;;5057123;28;20532;-92
2022/09/26 09:38:29;;;;;;;5.63;2.45;;;12.80;99.90;;;;;;5056881;28;20025;-91
2022/09/26 09:41:23;;;;;;;6.45;3.17;;;12.90;99.90;;;;;;5057753;28;20025;-90
2022/09/26 09:43:53;;;;;;;9.82;3.28;;;12.80;99.90;;;;;;5057038;28;20540;-90
2022/09/26 09:46:31;;;;;;;9.23;2.73;;;12.90;99.90;;;;;;5057975;28;20025;-91
2022/09/26 09:49:18;;;;;;;5.85;2.78;;;12.90;99.90;;;;;;5056764;28;20029;-92
2022/09/26 09:51:52;;;;;;;8.80;2.72;;;12.80;99.90;;;;;;5056928;28;20044;-91
2022/09/26 09:54:46;;;;;;;6.10;2.25;;;12.90;99.90;;;;;;5057457;28;20047;-91
2022/09/26 09:57:53;;;;;;;6.90;2.67;;;12.80;99.90;;;;;;5056475;28;20029;-94
2022/09/26 10:00:23;;;;;;;8.55;3.17;;;12.80;99.90;;;;;;5023925;28;20045;-91
2022/09/26 10:02:59;;;;;;;10.02;2.80;;;12.80;99.90;;;;;;5039745;28;20029;-90
2022/09/26 10:05:34;;;;;;;7.75;3.15;;;12.80;99.90;;;;;;5056393;28;20017;-92
2022/09/26 10:08:00;;;;;;;8.13;2.55;;;12.80;99.90;;;;;;5057388;28;20078;-93
2022/09/26 10:10:53;;;;;;;8.30;3.10;;;12.90;99.90;;;;;;5040584;28;20036;-91
2022/09/26 10:13:21;;;;;;;6.88;3.17;;;12.80;99.90;;;;;;5055800;28;20033;-91
2022/09/26 10:16:03;;;;;;;6.88;3.15;;;12.80;99.90;;;;;;5039969;28;20029;-92
2022/09/26 10:18:30;;;;;;;7.38;2.90;;;12.80;99.90;;;;;;5068926;28;20046;-93
2022/09/26 10:21:07;;;;;;;7.38;3.45;;;12.80;99.90;;;;;;5040597;28;20116;-91
2022/09/26 10:23:38;;;;;;;9.02;3.60;;;12.80;99.90;;;;;;5058377;28;20063;-93
2022/09/26 10:26:18;;;;;;;8.65;3.20;;;12.80;99.90;;;;;;5069562;28;20024;-91
2022/09/26 10:28:55;;;;;;;8.85;3.20;;;12.80;99.90;;;;;;5063830;28;20060;-92
2022/09/26 10:31:34;;;;;;;7.18;3.40;;;12.80;99.90;;;;;;5056578;28;20114;-91
2022/09/26 10:34:04;;;;;;;8.13;3.20;;;12.80;99.90;;;;;;5057842;28;20025;-91
2022/09/26 10:36:35;;;;;;;6.00;3.22;;;12.80;99.90;;;;;;5055874;28;20473;-93
2022/09/26 10:42:02;;;;;;;6.40;2.90;;;12.80;99.90;;;;;;5057449;28;20048;-95
2022/09/26 10:44:35;;;;;;;7.95;3.17;;;12.70;99.90;;;;;;5040726;28;20025;-94
2022/09/26 10:47:17;;;;;;;8.00;3.28;;;12.70;99.90;;;;;;5056253;28;20033;-94
2022/09/26 10:50:03;;;;;;;5.45;3.15;;;12.70;99.90;;;;;;5056092;28;20033;-94
2022/09/26 10:53:01;;;;;;;11.98;3.88;;;12.80;99.90;;;;;;5057672;28;20118;-94
2022/09/26 10:55:35;;;;;;;10.13;3.65;;;12.80;99.90;;;;;;5057064;28;20018;-95
2022/09/26 10:58:07;;;;;;;8.70;4.00;;;12.70;99.90;;;;;;5055931;28;20041;-94
2022/09/26 11:00:40;;;;;;;11.82;3.55;;;12.70;99.90;;;;;;5055708;28;20099;-94
2022/09/26 11:03:10;;;;;;;8.13;3.80;;;12.80;99.90;;;;;;5055238;28;20102;-91
2022/09/26 11:05:57;;;;;;;8.05;3.40;;;12.80;99.90;;;;;;5055391;28;20021;-93
2022/09/26 11:08:36;;;;;;;8.32;3.53;;;12.80;99.90;;;;;;5055432;28;20049;-94
2022/09/26 11:11:26;;;;;;;8.32;4.32;;;12.80;99.90;;;;;;5055460;28;20086;-92
2022/09/26 11:14:08;;;;;;;15.07;5.32;;;12.80;99.90;;;;;;5055343;28;20392;-92
2022/09/26 11:16:52;;;;;;;7.38;3.88;;;12.80;99.90;;;;;;5054839;28;20025;-91
2022/09/26 11:19:53;;;;;;;8.38;4.07;;;12.80;99.90;;;;;;5055931;28;20052;-92
2022/09/26 11:22:26;;;;;;;10.52;4.47;;;12.80;99.90;;;;;;5045310;28;20485;-89
2022/09/26 11:25:27;;;;;;;10.10;3.80;;;12.80;99.90;;;;;;5054859;28;20100;-91
2022/09/26 11:28:07;;;;;;;7.85;4.38;;;12.80;99.90;;;;;;5013788;28;20026;-90
2022/09/26 11:30:38;;;;;;;10.55;4.53;;;12.80;99.90;;;;;;5047449;28;20082;-88
2022/09/26 11:33:12;;;;;;;8.20;3.90;;;12.80;99.90;;;;;;5054727;28;20032;-90
2022/09/26 11:35:57;;;;;;;9.85;4.57;;;12.80;99.90;;;;;;5054583;28;20052;-88
2022/09/26 11:38:37;;;;;;;7.68;3.58;;;12.80;99.90;;;;;;5054302;28;20053;-91
2022/09/26 11:41:35;;;;;;;4.45;3.03;;;12.80;99.90;;;;;;5053988;28;20056;-88
2022/09/26 11:44:00;;;;;;;15.63;3.72;;;12.80;99.90;;;;;;5054040;28;20461;-88
2022/09/26 11:46:47;;;;;;;8.13;3.65;;;12.70;99.90;;;;;;5053742;28;20029;-89
2022/09/26 11:49:52;;;;;;;6.45;3.15;;;12.70;99.90;;;;;;5054272;28;20377;-89
2022/09/26 11:52:28;;;;;;;6.15;3.45;;;12.70;99.90;;;;;;5054756;28;20491;-90
2022/09/26 11:55:14;;;;;;;7.80;3.35;;;12.70;99.90;;;;;;5063235;28;20029;-90
2022/09/26 11:58:04;;;;;;;7.68;3.53;;;12.70;99.90;;;;;;5074949;28;20048;-89
2022/09/26 12:00:49;;;;;;;8.77;3.85;;;12.70;99.90;;;;;;5072115;28;20041;-90
2022/09/26 12:03:42;;;;;;;6.03;3.85;;;12.70;99.90;;;;;;5069511;28;20105;-90
2022/09/26 12:06:32;;;;;;;7.63;3.00;;;12.70;99.90;;;;;;5069763;28;20022;-90
2022/09/26 12:09:36;;;;;;;7.40;3.63;;;12.70;99.90;;;;;;5059863;28;20504;-90
2022/09/26 12:12:20;;;;;;;9.82;3.47;;;12.70;99.90;;;;;;5025572;28;20162;-91
2022/09/26 12:15:13;;;;;;;7.68;3.35;;;12.70;99.90;;;;;;5054382;28;20033;-89
2022/09/26 12:17:51;;;;;;;8.18;3.38;;;12.70;99.90;;;;;;5054089;28;20029;-89
2022/09/26 12:20:29;;;;;;;6.30;3.53;;;12.70;99.90;;;;;;5055020;28;20033;-90
2022/09/26 12:23:14;;;;;;;6.00;3.13;;;12.70;99.90;;;;;;5053899;28;20033;-90
2022/09/26 12:25:46;;;;;;;7.63;3.25;;;12.70;99.90;;;;;;5053896;28;20469;-90
2022/09/26 12:28:15;;;;;;;7.38;3.20;;;12.80;99.90;;;;;;5054054;28;20023;-90
2022/09/26 12:30:49;;;;;;;7.63;3.40;;;12.80;99.90;;;;;;5053790;28;20056;-89
2022/09/26 12:33:32;;;;;;;8.93;3.65;;;12.80;99.90;;;;;;5053978;28;20063;-89
2022/09/26 12:36:30;;;;;;;6.07;3.13;;;12.90;99.90;;;;;;5053948;28;20071;-90
2022/09/26 12:39:13;;;;;;;6.57;3.13;;;12.90;99.90;;;;;;5054420;28;20387;-90
2022/09/26 12:42:00;;;;;;;4.95;3.15;;;12.90;99.90;;;;;;5053806;28;20097;-90
2022/09/26 12:44:33;;;;;;;7.68;3.35;;;12.90;99.90;;;;;;5053840;28;20028;-89
2022/09/26 12:47:37;;;;;;;7.03;3.10;;;12.90;99.90;;;;;;5053203;28;20029;-91
2022/09/26 12:50:16;;;;;;;6.63;3.22;;;12.90;99.90;;;;;;5058715;28;20028;-91
2022/09/26 12:52:53;;;;;;;5.32;2.72;;;12.90;99.90;;;;;;5056674;28;20036;-90
2022/09/26 12:55:38;;;;;;;6.72;3.35;;;12.90;99.90;;;;;;5057303;28;20059;-91
2022/09/26 12:58:45;;;;;;;5.10;3.45;;;12.90;99.90;;;;;;5058727;28;20029;-91
2022/09/26 13:01:42;;;;;;;5.35;2.80;;;12.90;99.90;;;;;;5037670;28;20090;-90
2022/09/26 13:04:25;;;;;;;6.10;2.83;;;12.90;99.90;;;;;;5057957;28;20025;-94
2022/09/26 13:06:58;;;;;;;3.50;2.47;;;12.90;99.90;;;;;;5057850;28;20017;-91
2022/09/26 13:09:42;;;;;;;5.93;2.65;;;12.90;99.90;;;;;;5057395;28;20056;-91
2022/09/26 13:12:30;;;;;;;3.60;2.63;;;12.90;99.90;;;;;;5057659;28;20039;-91
2022/09/26 13:15:34;;;;;;;3.13;2.35;;;12.90;99.90;;;;;;5057254;28;20025;-90
2022/09/26 13:18:17;;;;;;;4.70;2.58;;;12.90;99.90;;;;;;5016571;28;20053;-90
2022/09/26 13:20:52;;;;;;;3.63;2.53;;;12.90;99.90;;;;;;4999920;28;20034;-90
2022/09/26 13:23:25;;;;;;;4.50;2.38;;;13.00;99.90;;;;;;5035635;28;20040;-91
2022/09/26 13:26:04;;;;;;;3.67;2.60;;;12.90;99.90;;;;;;5057157;28;20025;-90
2022/09/26 13:28:53;;;;;;;8.95;2.72;;;12.90;99.90;;;;;;5058073;28;20025;-90
2022/09/26 13:31:28;;;;;;;3.97;2.38;;;13.00;99.90;;;;;;5057383;28;20094;-90
2022/09/26 13:34:08;;;;;;;4.97;2.33;;;13.00;99.90;;;;;;5057001;28;20116;-90